sensor_id;sensor_type;location;lat;lon;timestamp;pressure;altitude;pressure_sealevel;temperature
68952;BMP180;56000;51.146;17.112;2024-03-17T00:01:31;100663.40;;;6.70
68952;BMP180;56000;51.146;17.112;2024-03-17T00:04:02;100665.40;;;6.60
68952;BMP180;56000;51.146;17.112;2024-03-17T00:06:32;100666.00;;;6.60
68952;BMP180;56000;51.146;17.112;2024-03-17T00:09:03;100667.40;;;6.50
68952;BMP180;56000;51.146;17.112;2024-03-17T00:11:35;100672.00;;;6.50
68952;BMP180;56000;51.146;17.112;2024-03-17T00:14:06;100670.20;;;6.50
68952;BMP180;56000;51.146;17.112;2024-03-17T00:16:37;100674.40;;;6.40
68952;BMP180;56000;51.146;17.112;2024-03-17T00:19:08;100672.80;;;6.40
68952;BMP180;56000;51.146;17.112;2024-03-17T00:21:39;100673.00;;;6.40
68952;BMP180;56000;51.146;17.112;2024-03-17T00:24:10;100671.00;;;6.30
68952;BMP180;56000;51.146;17.112;2024-03-17T00:26:42;100672.00;;;6.30
68952;BMP180;56000;51.146;17.112;2024-03-17T00:29:14;100674.80;;;6.20
68952;BMP180;56000;51.146;17.112;2024-03-17T00:31:44;100672.40;;;6.20
68952;BMP180;56000;51.146;17.112;2024-03-17T00:34:15;100672.40;;;6.10
68952;BMP180;56000;51.146;17.112;2024-03-17T00:36:46;100674.80;;;6.10
68952;BMP180;56000;51.146;17.112;2024-03-17T00:39:17;100672.20;;;6.00
68952;BMP180;56000;51.146;17.112;2024-03-17T00:41:48;100681.00;;;6.00
68952;BMP180;56000;51.146;17.112;2024-03-17T00:44:19;100681.80;;;5.90
68952;BMP180;56000;51.146;17.112;2024-03-17T00:46:49;100681.80;;;5.90
68952;BMP180;56000;51.146;17.112;2024-03-17T00:49:20;100682.80;;;5.90
68952;BMP180;56000;51.146;17.112;2024-03-17T00:51:50;100680.80;;;5.80
68952;BMP180;56000;51.146;17.112;2024-03-17T00:54:21;100682.40;;;5.80
68952;BMP180;56000;51.146;17.112;2024-03-17T00:56:52;100681.00;;;5.80
68952;BMP180;56000;51.146;17.112;2024-03-17T00:59:22;100684.60;;;5.80
68952;BMP180;56000;51.146;17.112;2024-03-17T01:01:53;100687.20;;;5.80
68952;BMP180;56000;51.146;17.112;2024-03-17T01:04:23;100687.00;;;5.70
68952;BMP180;56000;51.146;17.112;2024-03-17T01:06:54;100682.20;;;5.70
68952;BMP180;56000;51.146;17.112;2024-03-17T01:09:25;100680.80;;;5.70
68952;BMP180;56000;51.146;17.112;2024-03-17T01:11:55;100681.60;;;5.70
68952;BMP180;56000;51.146;17.112;2024-03-17T01:14:26;100684.60;;;5.62
68952;BMP180;56000;51.146;17.112;2024-03-17T01:16:57;100687.40;;;5.60
68952;BMP180;56000;51.146;17.112;2024-03-17T01:19:27;100682.40;;;5.60
68952;BMP180;56000;51.146;17.112;2024-03-17T01:21:59;100683.20;;;5.52
68952;BMP180;56000;51.146;17.112;2024-03-17T01:24:30;100684.40;;;5.50
68952;BMP180;56000;51.146;17.112;2024-03-17T01:27:03;100684.60;;;5.46
68952;BMP180;56000;51.146;17.112;2024-03-17T01:29:33;100682.00;;;5.40
68952;BMP180;56000;51.146;17.112;2024-03-17T01:32:04;100685.00;;;5.40
68952;BMP180;56000;51.146;17.112;2024-03-17T01:34:35;100685.60;;;5.30
68952;BMP180;56000;51.146;17.112;2024-03-17T01:37:06;100689.40;;;5.30
68952;BMP180;56000;51.146;17.112;2024-03-17T01:39:36;100696.20;;;5.30
68952;BMP180;56000;51.146;17.112;2024-03-17T01:42:07;100691.80;;;5.22
68952;BMP180;56000;51.146;17.112;2024-03-17T01:44:37;100691.60;;;5.20
68952;BMP180;56000;51.146;17.112;2024-03-17T01:47:08;100688.80;;;5.20
68952;BMP180;56000;51.146;17.112;2024-03-17T01:49:39;100689.20;;;5.20
68952;BMP180;56000;51.146;17.112;2024-03-17T01:52:10;100691.80;;;5.14
68952;BMP180;56000;51.146;17.112;2024-03-17T01:54:40;100692.60;;;5.10
68952;BMP180;56000;51.146;17.112;2024-03-17T01:57:11;100691.00;;;5.10
68952;BMP180;56000;51.146;17.112;2024-03-17T01:59:42;100691.80;;;5.10
68952;BMP180;56000;51.146;17.112;2024-03-17T02:02:12;100687.80;;;5.10
68952;BMP180;56000;51.146;17.112;2024-03-17T02:04:43;100688.00;;;5.00
68952;BMP180;56000;51.146;17.112;2024-03-17T02:07:13;100690.80;;;5.00
68952;BMP180;56000;51.146;17.112;2024-03-17T02:09:44;100687.80;;;4.90
68952;BMP180;56000;51.146;17.112;2024-03-17T02:12:15;100699.40;;;4.90
68952;BMP180;56000;51.146;17.112;2024-03-17T02:14:46;100699.60;;;4.90
68952;BMP180;56000;51.146;17.112;2024-03-17T02:17:16;100702.40;;;4.90
68952;BMP180;56000;51.146;17.112;2024-03-17T02:19:47;100706.80;;;4.90
68952;BMP180;56000;51.146;17.112;2024-03-17T02:22:18;100707.00;;;4.80
68952;BMP180;56000;51.146;17.112;2024-03-17T02:24:49;100706.60;;;4.80
68952;BMP180;56000;51.146;17.112;2024-03-17T02:27:19;100702.80;;;4.80
68952;BMP180;56000;51.146;17.112;2024-03-17T02:29:50;100705.00;;;4.72
68952;BMP180;56000;51.146;17.112;2024-03-17T02:32:20;100698.40;;;4.70
68952;BMP180;56000;51.146;17.112;2024-03-17T02:34:51;100702.40;;;4.70
68952;BMP180;56000;51.146;17.112;2024-03-17T02:37:22;100702.60;;;4.68
68952;BMP180;56000;51.146;17.112;2024-03-17T02:39:53;100706.20;;;4.60
68952;BMP180;56000;51.146;17.112;2024-03-17T02:42:23;100707.80;;;4.60
68952;BMP180;56000;51.146;17.112;2024-03-17T02:44:54;100716.40;;;4.60
68952;BMP180;56000;51.146;17.112;2024-03-17T02:47:24;100719.60;;;4.60
68952;BMP180;56000;51.146;17.112;2024-03-17T02:49:55;100717.60;;;4.58
68952;BMP180;56000;51.146;17.112;2024-03-17T02:52:26;100719.40;;;4.58
68952;BMP180;56000;51.146;17.112;2024-03-17T02:54:56;100718.80;;;4.54
68952;BMP180;56000;51.146;17.112;2024-03-17T02:57:29;100726.60;;;4.50
68952;BMP180;56000;51.146;17.112;2024-03-17T03:00:01;100725.20;;;4.50
68952;BMP180;56000;51.146;17.112;2024-03-17T03:02:33;100726.80;;;4.50
68952;BMP180;56000;51.146;17.112;2024-03-17T03:05:05;100728.80;;;4.40
68952;BMP180;56000;51.146;17.112;2024-03-17T03:07:35;100733.00;;;4.40
68952;BMP180;56000;51.146;17.112;2024-03-17T03:10:07;100731.60;;;4.34
68952;BMP180;56000;51.146;17.112;2024-03-17T03:12:38;100729.60;;;4.30
68952;BMP180;56000;51.146;17.112;2024-03-17T03:15:09;100733.80;;;4.30
68952;BMP180;56000;51.146;17.112;2024-03-17T03:17:40;100731.60;;;4.30
68952;BMP180;56000;51.146;17.112;2024-03-17T03:20:11;100733.00;;;4.30
68952;BMP180;56000;51.146;17.112;2024-03-17T03:22:43;100732.20;;;4.30
68952;BMP180;56000;51.146;17.112;2024-03-17T03:25:14;100727.20;;;4.20
68952;BMP180;56000;51.146;17.112;2024-03-17T03:27:44;100737.40;;;4.20
68952;BMP180;56000;51.146;17.112;2024-03-17T03:30:15;100739.00;;;4.20
68952;BMP180;56000;51.146;17.112;2024-03-17T03:32:50;100736.40;;;4.10
68952;BMP180;56000;51.146;17.112;2024-03-17T03:35:20;100740.40;;;4.10
68952;BMP180;56000;51.146;17.112;2024-03-17T03:37:52;100736.80;;;4.10
68952;BMP180;56000;51.146;17.112;2024-03-17T03:40:22;100733.80;;;4.08
68952;BMP180;56000;51.146;17.112;2024-03-17T03:42:54;100736.40;;;4.00
68952;BMP180;56000;51.146;17.112;2024-03-17T03:45:25;100734.20;;;4.00
68952;BMP180;56000;51.146;17.112;2024-03-17T03:47:56;100732.80;;;3.98
68952;BMP180;56000;51.146;17.112;2024-03-17T03:50:26;100734.60;;;3.90
68952;BMP180;56000;51.146;17.112;2024-03-17T03:52:57;100739.40;;;3.90
68952;BMP180;56000;51.146;17.112;2024-03-17T03:55:28;100731.20;;;3.90
68952;BMP180;56000;51.146;17.112;2024-03-17T03:57:59;100731.00;;;3.90
68952;BMP180;56000;51.146;17.112;2024-03-17T04:00:29;100731.00;;;3.90
68952;BMP180;56000;51.146;17.112;2024-03-17T04:03:01;100731.20;;;3.88
68952;BMP180;56000;51.146;17.112;2024-03-17T04:05:32;100731.40;;;3.80
68952;BMP180;56000;51.146;17.112;2024-03-17T04:08:04;100727.80;;;3.80
68952;BMP180;56000;51.146;17.112;2024-03-17T04:10:35;100735.40;;;3.80
68952;BMP180;56000;51.146;17.112;2024-03-17T04:13:06;100739.40;;;3.80
68952;BMP180;56000;51.146;17.112;2024-03-17T04:15:37;100737.20;;;3.80
68952;BMP180;56000;51.146;17.112;2024-03-17T04:18:08;100743.80;;;3.72
68952;BMP180;56000;51.146;17.112;2024-03-17T04:20:38;100742.60;;;3.70
68952;BMP180;56000;51.146;17.112;2024-03-17T04:23:10;100745.20;;;3.70
68952;BMP180;56000;51.146;17.112;2024-03-17T04:25:41;100741.00;;;3.70
68952;BMP180;56000;51.146;17.112;2024-03-17T04:28:12;100743.80;;;3.62
68952;BMP180;56000;51.146;17.112;2024-03-17T04:30:43;100742.20;;;3.60
68952;BMP180;56000;51.146;17.112;2024-03-17T04:33:15;100746.20;;;3.60
68952;BMP180;56000;51.146;17.112;2024-03-17T04:35:45;100747.80;;;3.52
68952;BMP180;56000;51.146;17.112;2024-03-17T04:38:16;100746.40;;;3.50
68952;BMP180;56000;51.146;17.112;2024-03-17T04:40:48;100752.40;;;3.50
68952;BMP180;56000;51.146;17.112;2024-03-17T04:43:19;100753.80;;;3.50
68952;BMP180;56000;51.146;17.112;2024-03-17T04:45:50;100760.80;;;3.50
68952;BMP180;56000;51.146;17.112;2024-03-17T04:48:29;100760.20;;;3.50
68952;BMP180;56000;51.146;17.112;2024-03-17T04:51:00;100757.60;;;3.50
68952;BMP180;56000;51.146;17.112;2024-03-17T04:53:31;100760.60;;;3.50
68952;BMP180;56000;51.146;17.112;2024-03-17T04:56:03;100765.60;;;3.48
68952;BMP180;56000;51.146;17.112;2024-03-17T04:58:34;100764.60;;;3.44
68952;BMP180;56000;51.146;17.112;2024-03-17T05:01:08;100769.40;;;3.40
68952;BMP180;56000;51.146;17.112;2024-03-17T05:03:39;100764.40;;;3.48
68952;BMP180;56000;51.146;17.112;2024-03-17T05:06:09;100768.60;;;3.48
68952;BMP180;56000;51.146;17.112;2024-03-17T05:08:40;100767.80;;;3.50
68952;BMP180;56000;51.146;17.112;2024-03-17T05:11:11;100767.60;;;3.50
68952;BMP180;56000;51.146;17.112;2024-03-17T05:13:43;100770.20;;;3.50
68952;BMP180;56000;51.146;17.112;2024-03-17T05:16:14;100771.40;;;3.60
68952;BMP180;56000;51.146;17.112;2024-03-17T05:18:45;100764.60;;;3.60
68952;BMP180;56000;51.146;17.112;2024-03-17T05:21:15;100769.20;;;3.60
68952;BMP180;56000;51.146;17.112;2024-03-17T05:23:46;100775.60;;;3.60
68952;BMP180;56000;51.146;17.112;2024-03-17T05:26:17;100778.80;;;3.62
68952;BMP180;56000;51.146;17.112;2024-03-17T05:28:48;100779.40;;;3.60
68952;BMP180;56000;51.146;17.112;2024-03-17T05:31:19;100782.00;;;3.70
68952;BMP180;56000;51.146;17.112;2024-03-17T05:33:51;100782.20;;;3.70
68952;BMP180;56000;51.146;17.112;2024-03-17T05:36:21;100780.20;;;3.80
68952;BMP180;56000;51.146;17.112;2024-03-17T05:38:52;100784.20;;;3.80
68952;BMP180;56000;51.146;17.112;2024-03-17T05:41:23;100782.40;;;3.80
68952;BMP180;56000;51.146;17.112;2024-03-17T05:43:55;100782.20;;;3.90
68952;BMP180;56000;51.146;17.112;2024-03-17T05:46:27;100787.20;;;4.06
68952;BMP180;56000;51.146;17.112;2024-03-17T05:48:58;100790.40;;;4.20
68952;BMP180;56000;51.146;17.112;2024-03-17T05:51:28;100783.40;;;4.36
68952;BMP180;56000;51.146;17.112;2024-03-17T05:53:59;100787.00;;;4.66
68952;BMP180;56000;51.146;17.112;2024-03-17T05:56:30;100785.40;;;4.90
68952;BMP180;56000;51.146;17.112;2024-03-17T05:59:00;100784.60;;;4.80
68952;BMP180;56000;51.146;17.112;2024-03-17T06:01:31;100780.60;;;4.80
68952;BMP180;56000;51.146;17.112;2024-03-17T06:04:01;100782.20;;;4.78
68952;BMP180;56000;51.146;17.112;2024-03-17T06:06:37;100777.00;;;4.80
68952;BMP180;56000;51.146;17.112;2024-03-17T06:09:07;100778.80;;;4.90
68952;BMP180;56000;51.146;17.112;2024-03-17T06:11:39;100780.80;;;4.92
68952;BMP180;56000;51.146;17.112;2024-03-17T06:14:10;100782.20;;;5.00
68952;BMP180;56000;51.146;17.112;2024-03-17T06:16:41;100782.20;;;5.00
68952;BMP180;56000;51.146;17.112;2024-03-17T06:19:17;100786.20;;;5.06
68952;BMP180;56000;51.146;17.112;2024-03-17T06:21:47;100788.20;;;5.10
68952;BMP180;56000;51.146;17.112;2024-03-17T06:24:18;100800.60;;;5.20
68952;BMP180;56000;51.146;17.112;2024-03-17T06:26:48;100796.80;;;5.20
68952;BMP180;56000;51.146;17.112;2024-03-17T06:29:20;100803.00;;;5.30
68952;BMP180;56000;51.146;17.112;2024-03-17T06:31:51;100803.00;;;5.30
68952;BMP180;56000;51.146;17.112;2024-03-17T06:34:21;100810.80;;;5.40
68952;BMP180;56000;51.146;17.112;2024-03-17T06:36:52;100819.60;;;5.40
68952;BMP180;56000;51.146;17.112;2024-03-17T06:39:23;100814.80;;;5.50
68952;BMP180;56000;51.146;17.112;2024-03-17T06:41:53;100824.00;;;5.50
68952;BMP180;56000;51.146;17.112;2024-03-17T06:44:24;100823.80;;;5.58
68952;BMP180;56000;51.146;17.112;2024-03-17T06:46:59;100828.80;;;5.62
68952;BMP180;56000;51.146;17.112;2024-03-17T06:49:29;100825.80;;;5.70
68952;BMP180;56000;51.146;17.112;2024-03-17T06:52:00;100827.60;;;5.70
68952;BMP180;56000;51.146;17.112;2024-03-17T06:54:31;100831.00;;;5.80
68952;BMP180;56000;51.146;17.112;2024-03-17T06:57:03;100822.80;;;5.80
68952;BMP180;56000;51.146;17.112;2024-03-17T06:59:35;100827.20;;;5.84
68952;BMP180;56000;51.146;17.112;2024-03-17T07:02:05;100831.00;;;5.90
68952;BMP180;56000;51.146;17.112;2024-03-17T07:04:38;100835.40;;;5.96
68952;BMP180;56000;51.146;17.112;2024-03-17T07:07:08;100840.40;;;6.00
68952;BMP180;56000;51.146;17.112;2024-03-17T07:09:39;100830.60;;;6.10
68952;BMP180;56000;51.146;17.112;2024-03-17T07:12:10;100832.80;;;6.20
68952;BMP180;56000;51.146;17.112;2024-03-17T07:14:41;100829.40;;;6.20
68952;BMP180;56000;51.146;17.112;2024-03-17T07:17:11;100835.80;;;6.30
68952;BMP180;56000;51.146;17.112;2024-03-17T07:19:42;100835.40;;;6.40
68952;BMP180;56000;51.146;17.112;2024-03-17T07:22:13;100841.80;;;6.50
68952;BMP180;56000;51.146;17.112;2024-03-17T07:24:44;100828.80;;;6.70
68952;BMP180;56000;51.146;17.112;2024-03-17T07:27:14;100828.80;;;6.80
68952;BMP180;56000;51.146;17.112;2024-03-17T07:29:45;100842.00;;;6.96
68952;BMP180;56000;51.146;17.112;2024-03-17T07:32:16;100837.60;;;7.00
68952;BMP180;56000;51.146;17.112;2024-03-17T07:34:46;100849.40;;;7.00
68952;BMP180;56000;51.146;17.112;2024-03-17T07:37:18;100837.00;;;7.10
68952;BMP180;56000;51.146;17.112;2024-03-17T07:39:49;100838.60;;;7.14
68952;BMP180;56000;51.146;17.112;2024-03-17T07:42:19;100837.80;;;7.30
68952;BMP180;56000;51.146;17.112;2024-03-17T07:44:50;100843.20;;;7.40
68952;BMP180;56000;51.146;17.112;2024-03-17T07:47:20;100833.20;;;7.42
68952;BMP180;56000;51.146;17.112;2024-03-17T07:49:51;100839.20;;;7.50
68952;BMP180;56000;51.146;17.112;2024-03-17T07:52:22;100841.80;;;7.60
68952;BMP180;56000;51.146;17.112;2024-03-17T07:54:52;100840.20;;;7.50
68952;BMP180;56000;51.146;17.112;2024-03-17T07:57:24;100842.60;;;7.50
68952;BMP180;56000;51.146;17.112;2024-03-17T07:59:54;100837.60;;;7.50
68952;BMP180;56000;51.146;17.112;2024-03-17T08:02:25;100838.40;;;7.60
68952;BMP180;56000;51.146;17.112;2024-03-17T08:04:55;100848.00;;;7.70
68952;BMP180;56000;51.146;17.112;2024-03-17T08:07:26;100834.00;;;7.60
68952;BMP180;56000;51.146;17.112;2024-03-17T08:09:56;100833.80;;;7.50
68952;BMP180;56000;51.146;17.112;2024-03-17T08:12:28;100831.40;;;7.40
68952;BMP180;56000;51.146;17.112;2024-03-17T08:14:59;100838.40;;;7.50
68952;BMP180;56000;51.146;17.112;2024-03-17T08:17:29;100832.60;;;7.46
68952;BMP180;56000;51.146;17.112;2024-03-17T08:20:01;100836.00;;;7.58
68952;BMP180;56000;51.146;17.112;2024-03-17T08:22:31;100845.20;;;7.86
68952;BMP180;56000;51.146;17.112;2024-03-17T08:25:02;100835.80;;;8.16
68952;BMP180;56000;51.146;17.112;2024-03-17T08:27:34;100838.60;;;8.30
68952;BMP180;56000;51.146;17.112;2024-03-17T08:30:06;100832.60;;;8.70
68952;BMP180;56000;51.146;17.112;2024-03-17T08:32:39;100832.40;;;8.80
68952;BMP180;56000;51.146;17.112;2024-03-17T08:35:10;100831.60;;;8.80
68952;BMP180;56000;51.146;17.112;2024-03-17T08:37:41;100820.40;;;8.82
68952;BMP180;56000;51.146;17.112;2024-03-17T08:40:13;100831.00;;;9.36
68952;BMP180;56000;51.146;17.112;2024-03-17T08:42:43;100825.60;;;9.20
68952;BMP180;56000;51.146;17.112;2024-03-17T08:45:14;100820.80;;;9.56
68952;BMP180;56000;51.146;17.112;2024-03-17T08:47:50;100823.60;;;10.00
68952;BMP180;56000;51.146;17.112;2024-03-17T08:50:21;100822.00;;;9.70
68952;BMP180;56000;51.146;17.112;2024-03-17T08:52:51;100830.80;;;10.04
68952;BMP180;56000;51.146;17.112;2024-03-17T08:55:22;100830.60;;;10.56
68952;BMP180;56000;51.146;17.112;2024-03-17T08:57:52;100830.40;;;10.38
68952;BMP180;56000;51.146;17.112;2024-03-17T09:00:23;100832.60;;;9.86
68952;BMP180;56000;51.146;17.112;2024-03-17T09:02:54;100835.60;;;9.40
68952;BMP180;56000;51.146;17.112;2024-03-17T09:05:25;100834.60;;;9.76
68952;BMP180;56000;51.146;17.112;2024-03-17T09:07:56;100834.40;;;10.46
68952;BMP180;56000;51.146;17.112;2024-03-17T09:10:26;100832.80;;;11.50
68952;BMP180;56000;51.146;17.112;2024-03-17T09:12:57;100825.40;;;11.40
68952;BMP180;56000;51.146;17.112;2024-03-17T09:15:27;100831.80;;;11.00
68952;BMP180;56000;51.146;17.112;2024-03-17T09:17:58;100833.20;;;10.42
68952;BMP180;56000;51.146;17.112;2024-03-17T09:20:29;100821.80;;;10.28
68952;BMP180;56000;51.146;17.112;2024-03-17T09:23:00;100819.20;;;10.30
68952;BMP180;56000;51.146;17.112;2024-03-17T09:25:31;100828.20;;;10.60
68952;BMP180;56000;51.146;17.112;2024-03-17T09:28:02;100830.20;;;10.90
68952;BMP180;56000;51.146;17.112;2024-03-17T09:30:33;100825.20;;;10.86
68952;BMP180;56000;51.146;17.112;2024-03-17T09:33:04;100819.40;;;10.92
68952;BMP180;56000;51.146;17.112;2024-03-17T09:35:35;100830.20;;;10.62
68952;BMP180;56000;51.146;17.112;2024-03-17T09:38:06;100829.60;;;9.96
68952;BMP180;56000;51.146;17.112;2024-03-17T09:40:36;100826.40;;;10.56
68952;BMP180;56000;51.146;17.112;2024-03-17T09:43:08;100825.20;;;11.86
68952;BMP180;56000;51.146;17.112;2024-03-17T09:45:38;100827.20;;;13.32
68952;BMP180;56000;51.146;17.112;2024-03-17T09:48:09;100830.60;;;13.14
68952;BMP180;56000;51.146;17.112;2024-03-17T09:50:42;100827.00;;;12.06
68952;BMP180;56000;51.146;17.112;2024-03-17T09:53:15;100829.60;;;11.84
68952;BMP180;56000;51.146;17.112;2024-03-17T09:55:46;100825.40;;;11.92
68952;BMP180;56000;51.146;17.112;2024-03-17T09:58:17;100820.60;;;13.18
68952;BMP180;56000;51.146;17.112;2024-03-17T10:00:49;100824.20;;;14.46
68952;BMP180;56000;51.146;17.112;2024-03-17T10:03:40;100818.40;;;15.34
68952;BMP180;56000;51.146;17.112;2024-03-17T10:06:11;100814.00;;;16.24
68952;BMP180;56000;51.146;17.112;2024-03-17T10:08:46;100815.80;;;16.90
68952;BMP180;56000;51.146;17.112;2024-03-17T10:11:17;100811.40;;;17.48
68952;BMP180;56000;51.146;17.112;2024-03-17T10:13:58;100808.60;;;17.60
68952;BMP180;56000;51.146;17.112;2024-03-17T10:16:29;100799.60;;;17.86
68952;BMP180;56000;51.146;17.112;2024-03-17T10:19:08;100807.40;;;18.40
68952;BMP180;56000;51.146;17.112;2024-03-17T10:21:40;100812.80;;;19.04
68952;BMP180;56000;51.146;17.112;2024-03-17T10:24:12;100812.60;;;19.58
68952;BMP180;56000;51.146;17.112;2024-03-17T10:26:44;100811.80;;;20.40
68952;BMP180;56000;51.146;17.112;2024-03-17T10:29:24;100818.00;;;19.00
68952;BMP180;56000;51.146;17.112;2024-03-17T10:31:55;100810.60;;;16.94
68952;BMP180;56000;51.146;17.112;2024-03-17T10:34:26;100813.80;;;15.60
68952;BMP180;56000;51.146;17.112;2024-03-17T10:37:07;100820.00;;;14.68
68952;BMP180;56000;51.146;17.112;2024-03-17T10:39:39;100824.80;;;13.52
68952;BMP180;56000;51.146;17.112;2024-03-17T10:42:11;100827.80;;;12.56
68952;BMP180;56000;51.146;17.112;2024-03-17T10:44:43;100821.20;;;12.92
68952;BMP180;56000;51.146;17.112;2024-03-17T10:47:18;100823.60;;;15.06
68952;BMP180;56000;51.146;17.112;2024-03-17T10:49:52;100813.60;;;16.98
68952;BMP180;56000;51.146;17.112;2024-03-17T10:52:23;100810.00;;;18.38
68952;BMP180;56000;51.146;17.112;2024-03-17T10:55:05;100804.00;;;19.44
68952;BMP180;56000;51.146;17.112;2024-03-17T10:57:41;100810.20;;;20.54
68952;BMP180;56000;51.146;17.112;2024-03-17T11:00:16;100800.40;;;21.16
68952;BMP180;56000;51.146;17.112;2024-03-17T11:02:48;100799.40;;;21.66
68952;BMP180;56000;51.146;17.112;2024-03-17T11:05:21;100810.00;;;19.86
68952;BMP180;56000;51.146;17.112;2024-03-17T11:07:53;100806.60;;;18.76
68952;BMP180;56000;51.146;17.112;2024-03-17T11:10:26;100812.80;;;20.10
68952;BMP180;56000;51.146;17.112;2024-03-17T11:12:58;100807.60;;;19.14
68952;BMP180;56000;51.146;17.112;2024-03-17T11:15:41;100800.80;;;20.00
68952;BMP180;56000;51.146;17.112;2024-03-17T11:18:31;100796.40;;;20.98
68952;BMP180;56000;51.146;17.112;2024-03-17T11:21:03;100801.00;;;20.50
68952;BMP180;56000;51.146;17.112;2024-03-17T11:23:38;100797.60;;;21.10
68952;BMP180;56000;51.146;17.112;2024-03-17T11:26:09;100791.60;;;21.72
68952;BMP180;56000;51.146;17.112;2024-03-17T11:28:50;100794.40;;;22.80
68952;BMP180;56000;51.146;17.112;2024-03-17T11:31:40;100796.20;;;22.96
68952;BMP180;56000;51.146;17.112;2024-03-17T11:34:35;100797.20;;;21.00
68952;BMP180;56000;51.146;17.112;2024-03-17T11:37:06;100800.60;;;21.94
68952;BMP180;56000;51.146;17.112;2024-03-17T11:39:55;100796.60;;;22.70
68952;BMP180;56000;51.146;17.112;2024-03-17T11:42:28;100792.60;;;23.50
68952;BMP180;56000;51.146;17.112;2024-03-17T11:45:00;100792.40;;;24.10
68952;BMP180;56000;51.146;17.112;2024-03-17T11:47:41;100788.40;;;24.62
68952;BMP180;56000;51.146;17.112;2024-03-17T11:50:12;100785.00;;;25.10
68952;BMP180;56000;51.146;17.112;2024-03-17T11:52:43;100777.00;;;24.80
68952;BMP180;56000;51.146;17.112;2024-03-17T11:55:19;100781.40;;;25.44
68952;BMP180;56000;51.146;17.112;2024-03-17T11:57:54;100787.00;;;25.44
68952;BMP180;56000;51.146;17.112;2024-03-17T12:00:25;100782.20;;;25.16
68952;BMP180;56000;51.146;17.112;2024-03-17T12:02:56;100786.60;;;24.38
68952;BMP180;56000;51.146;17.112;2024-03-17T12:05:33;100785.80;;;22.72
68952;BMP180;56000;51.146;17.112;2024-03-17T12:08:05;100783.40;;;22.48
68952;BMP180;56000;51.146;17.112;2024-03-17T12:10:49;100787.40;;;20.68
68952;BMP180;56000;51.146;17.112;2024-03-17T12:13:20;100791.60;;;19.16
68952;BMP180;56000;51.146;17.112;2024-03-17T12:15:51;100789.00;;;17.34
68952;BMP180;56000;51.146;17.112;2024-03-17T12:18:40;100791.80;;;15.76
68952;BMP180;56000;51.146;17.112;2024-03-17T12:21:15;100786.80;;;14.66
68952;BMP180;56000;51.146;17.112;2024-03-17T12:23:46;100779.40;;;14.54
68952;BMP180;56000;51.146;17.112;2024-03-17T12:26:16;100774.00;;;17.20
68952;BMP180;56000;51.146;17.112;2024-03-17T12:28:48;100769.80;;;19.66
68952;BMP180;56000;51.146;17.112;2024-03-17T12:31:19;100769.80;;;21.14
68952;BMP180;56000;51.146;17.112;2024-03-17T12:33:50;100761.20;;;22.26
68952;BMP180;56000;51.146;17.112;2024-03-17T12:36:20;100754.60;;;23.58
68952;BMP180;56000;51.146;17.112;2024-03-17T12:38:51;100748.80;;;24.94
68952;BMP180;56000;51.146;17.112;2024-03-17T12:41:22;100759.60;;;25.78
68952;BMP180;56000;51.146;17.112;2024-03-17T12:43:52;100768.20;;;23.86
68952;BMP180;56000;51.146;17.112;2024-03-17T12:46:23;100771.40;;;21.22
68952;BMP180;56000;51.146;17.112;2024-03-17T12:49:00;100770.20;;;19.22
68952;BMP180;56000;51.146;17.112;2024-03-17T12:51:33;100757.60;;;17.70
68952;BMP180;56000;51.146;17.112;2024-03-17T12:54:14;100770.40;;;17.70
68952;BMP180;56000;51.146;17.112;2024-03-17T12:56:47;100765.20;;;18.02
68952;BMP180;56000;51.146;17.112;2024-03-17T12:59:42;100764.00;;;19.78
68952;BMP180;56000;51.146;17.112;2024-03-17T13:02:43;100757.20;;;21.78
68952;BMP180;56000;51.146;17.112;2024-03-17T13:05:19;100744.80;;;22.96
68952;BMP180;56000;51.146;17.112;2024-03-17T13:07:50;100743.00;;;23.86
68952;BMP180;56000;51.146;17.112;2024-03-17T13:10:21;100746.80;;;24.64
68952;BMP180;56000;51.146;17.112;2024-03-17T13:12:59;100741.60;;;23.32
68952;BMP180;56000;51.146;17.112;2024-03-17T13:15:31;100738.60;;;22.42
68952;BMP180;56000;51.146;17.112;2024-03-17T13:18:02;100750.40;;;22.60
68952;BMP180;56000;51.146;17.112;2024-03-17T13:20:33;100756.60;;;20.84
68952;BMP180;56000;51.146;17.112;2024-03-17T13:23:04;100740.80;;;19.20
68952;BMP180;56000;51.146;17.112;2024-03-17T13:25:35;100733.00;;;20.38
68952;BMP180;56000;51.146;17.112;2024-03-17T13:28:06;100750.60;;;21.70
68952;BMP180;56000;51.146;17.112;2024-03-17T13:30:37;100741.00;;;21.74
68952;BMP180;56000;51.146;17.112;2024-03-17T13:33:09;100734.40;;;22.74
68952;BMP180;56000;51.146;17.112;2024-03-17T13:35:41;100725.40;;;23.70
68952;BMP180;56000;51.146;17.112;2024-03-17T13:38:11;100730.00;;;24.28
68952;BMP180;56000;51.146;17.112;2024-03-17T13:40:42;100735.00;;;24.54
68952;BMP180;56000;51.146;17.112;2024-03-17T13:43:17;100730.00;;;24.84
68952;BMP180;56000;51.146;17.112;2024-03-17T13:45:47;100733.20;;;25.14
68952;BMP180;56000;51.146;17.112;2024-03-17T13:48:19;100731.20;;;25.34
68952;BMP180;56000;51.146;17.112;2024-03-17T13:50:49;100737.00;;;25.88
68952;BMP180;56000;51.146;17.112;2024-03-17T13:53:20;100733.60;;;26.00
68952;BMP180;56000;51.146;17.112;2024-03-17T13:55:51;100739.80;;;24.68
68952;BMP180;56000;51.146;17.112;2024-03-17T13:58:22;100732.60;;;22.66
68952;BMP180;56000;51.146;17.112;2024-03-17T14:00:52;100737.80;;;23.32
68952;BMP180;56000;51.146;17.112;2024-03-17T14:03:38;100740.00;;;24.22
68952;BMP180;56000;51.146;17.112;2024-03-17T14:06:09;100739.20;;;24.50
68952;BMP180;56000;51.146;17.112;2024-03-17T14:08:40;100738.60;;;23.10
68952;BMP180;56000;51.146;17.112;2024-03-17T14:11:11;100730.60;;;22.58
68952;BMP180;56000;51.146;17.112;2024-03-17T14:13:42;100733.80;;;22.52
68952;BMP180;56000;51.146;17.112;2024-03-17T14:16:13;100731.20;;;22.08
68952;BMP180;56000;51.146;17.112;2024-03-17T14:18:43;100723.00;;;22.54